Whitleys Peak, Santa Catalina Island Weather observations

Data are for 10 minute period ending at time listed.
 Day   Time   Solar   Ave.   Ave.  Ave.  Vector    Max.   Stn.    Total
  of    of     Rad.   Air    Rel.  Wind   Wind     Wind   Baro.  Precip.
Year   Day            Temp.  Hum.  Speed  Dir.     Gust   Pres.         
2014   (PST)   W/m2    F      %     mph   deg.      mph    mb.     in.  
------------------------------------------------------------------------
 212   10:20  999.0   999  999.0   999    999.0   999.0    999.0 999.00  
 212   10:30  999.0   999  999.0   999    999.0   999.0    999.0 999.00  
 212   10:40  999.0   999  999.0   999    999.0   999.0    999.0 999.00  
 212   10:50  999.0   999  999.0   999    999.0   999.0    999.0 999.00  
 212   11:00  999.0   999  999.0   999    999.0   999.0    999.0 999.00  
 212   11:10  999.0   999  999.0   999    999.0   999.0    999.0 999.00  
 212   11:20  999.0   999  999.0   999    999.0   999.0    999.0 999.00  
 212   11:30  999.0   999  999.0   999    999.0   999.0    999.0 999.00  
 212   11:40  999.0   999  999.0   999    999.0   999.0    999.0 999.00  
 212   11:50  999.0   999  999.0   999    999.0   999.0    999.0 999.00  
 212   12:00  999.0   999  999.0   999    999.0   999.0    999.0 999.00  
 212   12:10  999.0   999  999.0   999    999.0   999.0    999.0 999.00  
 212   12:20  999.0   999  999.0   999    999.0   999.0    999.0 999.00  
 212   12:30  999.0   999  999.0   999    999.0   999.0    999.0 999.00  
 212   12:40  999.0   999  999.0   999    999.0   999.0    999.0 999.00  
 212   12:50  999.0   999  999.0   999    999.0   999.0    999.0 999.00  
 212   13:00  999.0   999  999.0   999    999.0   999.0    999.0 999.00  
 212   13:10  999.0   999  999.0   999    999.0   999.0    999.0 999.00  
 212   13:20  999.0   999  999.0   999    999.0   999.0    999.0 999.00  
 212   13:30  999.0   999  999.0   999    999.0   999.0    999.0 999.00  
 212   13:40  999.0   999  999.0   999    999.0   999.0    999.0 999.00  
 212   13:50  999.0   999  999.0   999    999.0   999.0    999.0 999.00  
 212   14:00  999.0   999  999.0   999    999.0   999.0    999.0 999.00  
 212   14:10  999.0   999  999.0   999    999.0   999.0    999.0 999.00  
 212   14:20  999.0   999  999.0   999    999.0   999.0    999.0 999.00  
 212   14:30  999.0   999  999.0   999    999.0   999.0    999.0 999.00  
 212   14:40  999.0   999  999.0   999    999.0   999.0    999.0 999.00  
 212   14:50  999.0   999  999.0   999    999.0   999.0    999.0 999.00  
 212   15:00  999.0   999  999.0   999    999.0   999.0    999.0 999.00  
 212   15:10  999.0   999  999.0   999    999.0   999.0    999.0 999.00  
 212   15:20  999.0   999  999.0   999    999.0   999.0    999.0 999.00  
 212   15:30  583.0    86   45.0     6    246.2    10.2    999.0   0.00  
 212   15:40  557.0    85   46.6     6    251.3     9.6    999.0   0.00  
 212   15:50  531.0    84   47.8     7    241.4     9.6    999.0   0.00  
 212   16:00  503.0    84   48.8     9    252.4    14.3    999.0   0.00  
 212   16:10  474.0    82   52.2     9    241.0    13.1    999.0   0.00  
 212   16:20  446.0    81   53.6     9    246.3    14.3    999.0   0.00  
 212   16:30  415.0    79   56.9     9    243.5    12.5    999.0   0.00  
 212   16:40  385.0    78   59.3     9    237.0    13.1    999.0   0.00  
 212   16:50  354.0    77   61.2    10    235.7    14.9    999.0   0.00  
 212   17:00  324.0    75   65.5    12    224.8    15.5    999.0   0.00  
 212   17:10  292.0    73   68.2    12    227.9    14.3    999.0   0.00  
 212   17:20  260.0    72   70.3    13    227.3    16.7    999.0   0.00  
 212   17:30  229.0    71   71.4    13    225.8    16.1    999.0   0.00  
 212   17:40  198.0    70   74.4    13    228.2    14.9    999.0   0.00  
 212   17:50  169.0    69   76.3    14    226.1    16.7    999.0   0.00  
 212   18:00  140.0    68   78.6    16    234.7    19.7    999.0   0.00  
 212   18:10  112.0    67   80.4    14    244.5    19.1    999.0   0.00  
 212   18:20   85.0    66   83.2    14    239.2    17.3    999.0   0.00  
 212   18:30   58.0    65   85.7    13    233.5    16.1    999.0   0.00  
 212   18:40   33.0    64   87.8    13    246.7    17.3    999.0   0.00  
 212   18:50   16.0    63   89.1    14    243.2    16.7    999.0   0.00  
 212   19:00    6.0    63   90.6    17    229.2    20.3    999.0   0.00  
 212   19:10    0.0    62   92.5    17    229.0    20.3    999.0   0.00  
 212   19:20    0.0    62   93.6    16    222.6    19.1    999.0   0.00  
 212   19:30    0.0    61   94.1    15    223.9    17.9    999.0   0.00  
 212   19:40    0.0    61   94.6    14    210.1    18.5    999.0   0.00  
 212   19:50    0.0    61   94.6    13    214.9    17.3    999.0   0.00  
 212   20:00    0.0    63   91.1     9    224.5    14.3    999.0   0.00  
 212   20:10    0.0    67   77.7    10    242.5    16.1    999.0   0.00  
 212   20:20    0.0    63   88.6    12    213.8    15.5    999.0   0.00  
 212   20:30    0.0    61   93.4    12    217.9    15.5    999.0   0.00  
 212   20:40    0.0    63   91.0     7    208.1    15.5    999.0   0.00  
 212   20:50    0.0    69   71.9     1    172.4     5.4    999.0   0.00  
 212   21:00    0.0    68   72.9     2     77.2     4.2    999.0   0.00  
 212   21:10    0.0    67   76.2     2    122.4     4.2    999.0   0.00  
 212   21:20    0.0    67   80.4     5    112.3     7.2    999.0   0.00  
 212   21:30    0.0    66   82.7     5    110.9     6.6    999.0   0.00  
 212   21:40    0.0    67   80.9     8    113.0     9.6    999.0   0.00  
 212   21:50    0.0    68   80.4     7    127.0     9.0    999.0   0.00  
 212   22:00    0.0    68   79.7     5    112.3     7.2    999.0   0.00  
 212   22:10    0.0    68   79.3     3    112.3     4.8    999.0   0.00  
 212   22:20    0.0    68   77.7     4    110.6     4.8    999.0   0.00  
 212   22:30    0.0    68   78.7     4    113.6     5.4    999.0   0.00  
 212   22:40    0.0    70   72.3     5    116.0     5.4    999.0   0.00  
 212   22:50    0.0    70   69.4     4    106.6     5.4    999.0   0.00  
 212   23:00    0.0    68   77.6     4     69.2     5.4    999.0   0.00  
 212   23:10    0.0    67   82.0     4     55.2     6.0    999.0   0.00  
 212   23:20    0.0    66   83.6     3     87.2     5.4    999.0   0.00  
 212   23:30    0.0    66   81.4     3    122.0     5.4    999.0   0.00  
 212   23:40    0.0    69   72.1     5    117.2     7.2    999.0   0.00  
 212   23:50    0.0    69   73.6     7    123.6     8.4    999.0   0.00  
 213    0:00    0.0    67   79.4     4    109.8     7.8    999.0   0.00  
 213    0:10    0.0    63   91.9     6     66.2     9.0    999.0   0.00  
 213    0:20    0.0    63   94.4     6     91.1     9.0    999.0   0.00  
 213    0:30    0.0    63   95.1     6    106.2     7.8    999.0   0.00  
 213    0:40    0.0    62   95.4     5    106.0     7.8    999.0   0.00  
 213    0:50    0.0    62   95.6     6     77.9     8.4    999.0   0.00  
 213    1:00    0.0    62   95.7     6    101.6     8.4    999.0   0.00  
 213    1:10    0.0    63   95.9     7     87.8    10.8    999.0   0.00  
 213    1:20    0.0    63   95.9     8     87.7    10.2    999.0   0.00  
 213    1:30    0.0    62   96.0     6    104.0     9.6    999.0   0.00  
 213    1:40    0.0    62   96.1     4     84.0     5.4    999.0   0.00  
 213    1:50    0.0    62   96.2     6     76.7     7.2    999.0   0.00  
 213    2:00    0.0    62   96.2     7     89.1     9.6    999.0   0.00  
 213    2:10    0.0    62   96.3     7    100.4     9.0    999.0   0.00  
 213    2:20    0.0    62   96.3     8     82.8    10.2    999.0   0.00  
 213    2:30    0.0    62   96.4     6     87.5    10.2    999.0   0.00  
 213    2:40    0.0    62   96.4     7     90.6     9.0    999.0   0.00  
 213    2:50    0.0    62   96.4     6     92.2     7.8    999.0   0.00  
 213    3:00    0.0    62   96.5     7     82.9    10.2    999.0   0.00  
 213    3:10    0.0    62   96.5     7     78.9    10.8    999.0   0.00  
 213    3:20    0.0    62   96.6     6     77.2     7.2    999.0   0.00  
 213    3:30    0.0    62   96.6     5     93.4     7.8    999.0   0.00  
 213    3:40    0.0    62   96.6     5     72.9     7.2    999.0   0.00  
 213    3:50    0.0    62   96.6     4     90.4     7.2    999.0   0.00  
 213    4:00    0.0    62   96.7     5     97.7     7.8    999.0   0.00  
 213    4:10    0.0    62   96.7     5     86.9     7.2    999.0   0.00  
 213    4:20    0.0    62   96.7     4     54.9     6.6    999.0   0.00  
 213    4:30    0.0    62   96.7     3     49.3     6.6    999.0   0.00  
 213    4:40    0.0    62   96.7     2     47.4     6.6    999.0   0.00  
 213    4:50    0.0    62   96.8     6     56.6     7.8    999.0   0.00  
 213    5:00    0.0    62   96.8     5     58.3     7.8    999.0   0.00  
 213    5:10    1.0    62   96.8     5     23.7     7.2    999.0   0.00  
 213    5:20    6.0    62   96.8     4     44.6     6.0    999.0   0.00  
 213    5:30    7.0    62   96.8     6     52.5     9.0    999.0   0.00  
 213    5:40   12.0    62   96.9     6     52.4     7.2    999.0   0.00  
 213    5:50   17.0    62   96.9     6     70.0     8.4    999.0   0.00  
 213    6:00   24.0    62   96.9     6     77.8     7.8    999.0   0.00  
 213    6:10   34.0    62   96.9     5     63.9     7.2    999.0   0.00  
 213    6:20   49.0    62   96.9     4     88.3     6.0    999.0   0.00  
 213    6:30   64.0    62   96.9     3     54.2     4.8    999.0   0.00  
 213    6:40   74.0    62   96.9     3     65.0     5.4    999.0   0.00  
 213    6:50   87.0    62   96.9     4     80.3     6.6    999.0   0.00  
 213    7:00  111.0    62   96.9     3     86.5     6.0    999.0   0.00  
 213    7:10  111.0    62   96.9     2    104.7     3.6    999.0   0.00  
 213    7:20  128.0    63   96.9     3     70.1     4.8    999.0   0.00  
 213    7:30  189.0    63   96.9     1     37.4     3.6    999.0   0.00  
 213    7:40  213.0    63   96.9     2     14.2     4.2    999.0   0.00  
 213    7:50  293.0    64   96.8     3    306.0     6.0    999.0   0.00  
 213    8:00  407.0    64   96.6     3    225.1     6.0    999.0   0.00  
 213    8:10  439.0    66   95.7     4     40.2     6.6    999.0   0.00  
 213    8:20  467.0    66   95.1     4     35.0     7.8    999.0   0.00  
 213    8:30  494.0    67   94.8     4     50.3     7.2    999.0   0.00  
 213    8:40  523.0    68   93.9     3     43.2     7.2    999.0   0.00  
 213    8:50  548.0    69   94.5     4     84.8     7.2    999.0   0.00  
 213    9:00  576.0    70   84.8     5     73.3     8.4    999.0   0.00  
 213    9:10  570.0    71   79.4     4     20.2     7.8    999.0   0.00  
 213    9:20  624.0    70   82.2     3      4.8     6.6    999.0   0.00  
 213    9:30  647.0    72   77.6     4     23.7     7.8    999.0   0.00  
 213    9:40  670.0    74   75.5     4     51.5     7.8    999.0   0.00  
 213    9:50  692.0    73   76.9     5     89.8     9.0    999.0   0.00  
 213   10:00  630.0    71   79.2     8     82.2    11.9    999.0   0.00  
 213   10:10  441.0    68   84.9     8     72.2    11.3    999.0   0.00  

Return to Whitleys Peak graphs page.


Western Regional Climate Center,wrcc@dri.edu